createdAt,value
2019-01-24T00:00:24.715Z,2.91
2019-01-24T00:03:54.779Z,2.66
2019-01-24T00:07:24.984Z,3.14
2019-01-24T00:10:55.019Z,2.19
2019-01-24T00:14:25.054Z,2.56
2019-01-24T00:17:55.071Z,2.07
2019-01-24T00:21:25.203Z,2.26
2019-01-24T00:24:55.267Z,1.81
2019-01-24T00:28:25.453Z,2
2019-01-24T00:31:55.567Z,1.71
2019-01-24T00:35:25.611Z,1.68
2019-01-24T00:38:55.756Z,2.09
2019-01-24T00:42:25.942Z,1.75
2019-01-24T00:46:11.165Z,1.96
2019-01-24T00:49:41.206Z,2.28
2019-01-24T00:53:11.275Z,1.73
2019-01-24T00:56:41.359Z,1.52
2019-01-24T01:00:14.738Z,2.48
2019-01-24T01:03:44.848Z,1.89
2019-01-24T01:07:14.903Z,1.65
2019-01-24T01:10:45.102Z,2.14
2019-01-24T01:14:15.082Z,2.95
2019-01-24T01:17:45.887Z,2.38
2019-01-24T01:21:16.102Z,1.9
2019-01-24T01:24:46.268Z,2.1
2019-01-24T01:28:16.287Z,2.38
2019-01-24T01:31:46.475Z,3.14
2019-01-24T01:35:16.641Z,4.4
2019-01-24T01:38:46.597Z,3.16
2019-01-24T01:42:17.659Z,3.38
2019-01-24T01:45:47.753Z,3.95
2019-01-24T01:49:17.830Z,3.83
2019-01-24T01:52:48.073Z,3.75
2019-01-24T01:56:18.148Z,3.86
2019-01-24T01:59:48.189Z,3.38
2019-01-24T02:00:18.435Z,3.92
2019-01-24T02:03:48.385Z,3.77
2019-01-24T02:07:18.405Z,2.33
2019-01-24T02:10:48.436Z,3.27
2019-01-24T02:14:18.611Z,3.71
2019-01-24T02:17:48.726Z,5.31
2019-01-24T02:21:18.816Z,4.45
2019-01-24T02:24:48.888Z,3.94
2019-01-24T02:28:19.151Z,3.17
2019-01-24T02:31:49.208Z,4.8
2019-01-24T02:35:19.498Z,4.74
2019-01-24T02:38:49.505Z,4.76
2019-01-24T02:42:20.527Z,4.08
2019-01-24T02:45:50.567Z,5.06
2019-01-24T02:49:20.622Z,3.45
2019-01-24T02:52:50.785Z,3.41
2019-01-24T02:56:20.830Z,4.06
2019-01-24T02:59:50.847Z,5
2019-01-24T03:03:20.968Z,6.95
2019-01-24T03:06:51.063Z,4.24
2019-01-24T03:10:21.298Z,4.56
2019-01-24T03:13:51.323Z,5.31
2019-01-24T03:17:21.387Z,5.65
2019-01-24T03:20:51.522Z,5.4
2019-01-24T03:24:21.746Z,4.29
2019-01-24T03:27:51.802Z,6
2019-01-24T03:31:21.895Z,4.28
2019-01-24T03:34:51.891Z,4.26
2019-01-24T03:38:21.989Z,4.53
2019-01-24T03:41:52.056Z,7.15
2019-01-24T03:45:22.259Z,6.54
2019-01-24T03:48:52.502Z,7.97
2019-01-24T03:52:22.649Z,6.84
2019-01-24T03:55:52.719Z,8.61
2019-01-24T03:59:23.004Z,8.19
2019-01-24T04:00:18.510Z,9.55
2019-01-24T04:03:48.838Z,7.14
2019-01-24T04:07:18.825Z,8.68
2019-01-24T04:10:48.919Z,7.23
2019-01-24T04:14:19.131Z,9.18
2019-01-24T04:17:49.257Z,7.39
2019-01-24T04:21:19.312Z,6.79
2019-01-24T04:24:49.250Z,7.81
2019-01-24T04:28:19.395Z,7.98
2019-01-24T04:31:49.474Z,10.16
2019-01-24T04:35:20.455Z,9.19
2019-01-24T04:38:50.690Z,9.48
2019-01-24T04:42:20.710Z,10.22
2019-01-24T04:45:51.941Z,12.39
2019-01-24T04:49:21.970Z,10.11
2019-01-24T04:52:52.128Z,9.14
2019-01-24T04:56:22.205Z,9.89
2019-01-24T04:59:52.357Z,9.16
2019-01-24T05:03:22.347Z,10.66
2019-01-24T05:06:52.434Z,10.96
2019-01-24T05:10:22.511Z,15.1
2019-01-24T05:13:52.565Z,13.24
2019-01-24T05:17:23.490Z,11
2019-01-24T05:20:53.559Z,10.06
2019-01-24T05:24:23.550Z,10.64
2019-01-24T05:27:53.621Z,12.41
2019-01-24T05:31:23.851Z,13.24
2019-01-24T05:34:53.892Z,13.26
2019-01-24T05:38:23.910Z,17.33
2019-01-24T05:41:53.903Z,11.06
2019-01-24T05:45:24.088Z,8.97
2019-01-24T05:48:55.209Z,8.22
2019-01-24T05:52:25.279Z,8.65
2019-01-24T05:55:55.270Z,7.09
2019-01-24T05:59:25.323Z,7.96
2019-01-24T06:00:20.620Z,11.94
2019-01-24T06:03:50.731Z,7.66
2019-01-24T06:07:20.951Z,10.01
2019-01-24T06:10:50.942Z,10.1
2019-01-24T06:14:21.055Z,8.06
2019-01-24T06:17:51.098Z,9.93
2019-01-24T06:21:28.300Z,21.65
2019-01-24T06:24:58.207Z,11.64
2019-01-24T06:28:28.245Z,15.2
2019-01-24T06:31:21.615Z,8.16
2019-01-24T06:34:51.606Z,7.16
2019-01-24T06:38:21.656Z,10.18
2019-01-24T06:41:51.738Z,5.76
2019-01-24T06:45:21.953Z,9.01
2019-01-24T06:48:52.031Z,4.11
2019-01-24T06:52:22.260Z,9.46
2019-01-24T06:55:52.361Z,7.91
2019-01-24T06:59:22.339Z,7.95
2019-01-24T07:02:52.367Z,6.39
2019-01-24T07:06:22.589Z,5.96
2019-01-24T07:09:52.564Z,5.64
2019-01-24T07:13:22.493Z,7.6
2019-01-24T07:16:52.574Z,5.97
2019-01-24T07:20:22.629Z,4.98
2019-01-24T07:23:52.778Z,6.99
2019-01-24T07:27:22.866Z,12.35
2019-01-24T07:30:52.955Z,4.99
2019-01-24T07:34:23.023Z,13.81
2019-01-24T07:37:53.152Z,5.46
2019-01-24T07:41:23.231Z,6.68
2019-01-24T07:44:53.198Z,18.76
2019-01-24T07:48:23.248Z,7.31
2019-01-24T07:51:53.298Z,6.29
2019-01-24T07:55:24.319Z,7.3
2019-01-24T07:58:54.362Z,9.5
2019-01-24T08:00:19.778Z,14.34
2019-01-24T08:03:49.928Z,11.36
2019-01-24T08:07:20.005Z,11.86
2019-01-24T08:10:50.053Z,7.83
2019-01-24T08:14:20.112Z,9.55
2019-01-24T08:17:50.262Z,11.38
2019-01-24T08:21:20.379Z,9.53
2019-01-24T08:24:50.478Z,8.65
2019-01-24T08:28:20.616Z,7.01
2019-01-24T08:31:50.805Z,4.61
2019-01-24T08:35:21.094Z,3.56
2019-01-24T08:38:51.192Z,4.15
2019-01-24T08:42:21.584Z,3.26
2019-01-24T08:45:51.799Z,4.15
2019-01-24T08:49:21.928Z,4.41
2019-01-24T08:52:52.146Z,3.64
2019-01-24T08:56:23.205Z,4.58
2019-01-24T08:59:53.234Z,4.1
2019-01-24T09:03:23.428Z,4.59
2019-01-24T09:06:53.613Z,4.24
2019-01-24T09:10:27.639Z,5.76
2019-01-24T09:13:57.732Z,15.44
2019-01-24T09:17:27.856Z,14.92
2019-01-24T09:20:57.975Z,14.5
2019-01-24T09:24:28.037Z,8.69
2019-01-24T09:27:58.153Z,12.98
2019-01-24T09:31:28.241Z,11.09
2019-01-24T09:34:58.210Z,11
2019-01-24T09:38:28.268Z,13.77
2019-01-24T09:41:58.317Z,5.79
2019-01-24T09:45:28.546Z,7.1
2019-01-24T09:48:58.588Z,3.15
2019-01-24T09:52:28.752Z,4.94
2019-01-24T09:55:58.871Z,3.16
2019-01-24T09:59:29.030Z,3.51
2019-01-24T10:00:22.373Z,4.49
2019-01-24T10:03:52.411Z,3.19
2019-01-24T10:07:22.529Z,3.01
2019-01-24T10:10:52.582Z,3.2
2019-01-24T10:14:22.727Z,2.75
2019-01-24T10:17:52.848Z,4.56
2019-01-24T10:21:23.014Z,4.06
2019-01-24T10:24:53.103Z,5.51
2019-01-24T10:28:23.222Z,3.84
2019-01-24T10:31:53.240Z,4.85
2019-01-24T10:35:23.549Z,5.51
2019-01-24T10:38:53.595Z,3.06
2019-01-24T10:42:23.758Z,7.89
2019-01-24T10:45:53.744Z,13.19
2019-01-24T10:49:23.813Z,7.99
2019-01-24T10:52:54.056Z,4.61
2019-01-24T10:56:24.171Z,4.03
2019-01-24T10:59:55.258Z,4.75
2019-01-24T11:03:25.388Z,5.44
2019-01-24T11:06:55.490Z,4.69
2019-01-24T11:10:25.716Z,5.11
2019-01-24T11:13:55.804Z,3.89
2019-01-24T11:17:25.910Z,4.36
2019-01-24T11:20:56.011Z,4.15
2019-01-24T11:24:26.115Z,3.64
2019-01-24T11:27:56.218Z,3.5
2019-01-24T11:31:26.247Z,4.65
2019-01-24T11:34:56.367Z,4.47
2019-01-24T11:38:26.485Z,5.08
2019-01-24T11:41:56.494Z,4.11
2019-01-24T11:45:29.492Z,4.25
2019-01-24T11:48:59.530Z,5.15
2019-01-24T11:52:29.635Z,5.78
2019-01-24T11:55:59.719Z,5.03
2019-01-24T11:59:29.869Z,3.58
2019-01-24T12:00:21.069Z,5.31
2019-01-24T12:03:51.187Z,5.81
2019-01-24T12:07:21.386Z,4.57
2019-01-24T12:10:51.425Z,3.42
2019-01-24T12:14:21.574Z,3.92
2019-01-24T12:17:51.666Z,3.84
2019-01-24T12:21:21.871Z,4.76
2019-01-24T12:24:52.010Z,4.9
2019-01-24T12:28:22.088Z,5
2019-01-24T12:31:52.147Z,4.54
2019-01-24T12:35:22.345Z,4.4
2019-01-24T12:38:52.445Z,4.3
2019-01-24T12:42:22.533Z,6.07
2019-01-24T12:45:52.473Z,5.04
2019-01-24T12:49:22.682Z,4.66
2019-01-24T12:52:52.889Z,4.55
2019-01-24T12:56:23.058Z,5.26
2019-01-24T12:59:53.207Z,5.75
2019-01-24T13:03:23.438Z,6.38
2019-01-24T13:06:53.533Z,7.54
2019-01-24T13:10:24.662Z,4.64
2019-01-24T13:13:54.761Z,6.9
2019-01-24T13:17:24.899Z,7.14
2019-01-24T13:20:55.038Z,7.02
2019-01-24T13:24:25.107Z,6.95
2019-01-24T13:27:55.186Z,12.35
2019-01-24T13:31:25.274Z,9.68
2019-01-24T13:34:55.383Z,10.16
2019-01-24T13:38:25.582Z,6.89
2019-01-24T13:41:55.679Z,12.43
2019-01-24T13:45:28.748Z,12.61
2019-01-24T13:48:58.907Z,9.84
2019-01-24T13:52:28.940Z,9.79
2019-01-24T13:55:58.975Z,14.14
2019-01-24T13:59:29.052Z,10.62
2019-01-24T14:00:19.275Z,10.55
2019-01-24T14:03:56.257Z,8.34
2019-01-24T14:07:32.822Z,6.79
2019-01-24T14:11:03.326Z,6.59
2019-01-24T14:14:33.471Z,7.56
2019-01-24T14:18:04.599Z,6.22
2019-01-24T14:21:34.737Z,7.31
2019-01-24T14:25:07.606Z,6.6
2019-01-24T14:28:37.675Z,5.1
2019-01-24T14:32:07.873Z,8.04
2019-01-24T14:35:38.071Z,13.85
2019-01-24T14:39:08.940Z,10.85
2019-01-24T14:42:38.999Z,13.95
2019-01-24T14:46:09.067Z,15.06
2019-01-24T14:49:39.106Z,7.12
2019-01-24T14:53:09.195Z,8.24
2019-01-24T14:56:39.353Z,12.85
2019-01-24T15:00:29.389Z,14.22
2019-01-24T15:04:00.491Z,5.69
2019-01-24T15:07:30.519Z,5.6
2019-01-24T15:11:00.572Z,7.8
2019-01-24T15:14:30.581Z,15.15
2019-01-24T15:18:00.798Z,6.12
2019-01-24T15:21:30.964Z,5.58
2019-01-24T15:25:01.088Z,6.04
2019-01-24T15:28:31.234Z,5.26
2019-01-24T15:32:01.343Z,6
2019-01-24T15:35:31.379Z,6.71
2019-01-24T15:39:01.491Z,5.28
2019-01-24T15:42:31.492Z,6.08
2019-01-24T15:46:01.705Z,5.8
2019-01-24T15:49:31.758Z,5.84
2019-01-24T15:53:01.861Z,6.61
2019-01-24T15:56:31.911Z,5.76
2019-01-24T16:00:21.427Z,5.88
2019-01-24T16:03:51.490Z,6.46
2019-01-24T16:07:23.386Z,7.03
2019-01-24T16:10:53.453Z,5.9
2019-01-24T16:14:23.563Z,5.17
2019-01-24T16:17:53.702Z,4.89
2019-01-24T16:21:23.851Z,6.34
2019-01-24T16:24:53.851Z,5.65
2019-01-24T16:28:24.763Z,7.59
2019-01-24T16:31:55.049Z,5.46
2019-01-24T16:35:25.534Z,6.04
2019-01-24T16:38:55.563Z,5.69
2019-01-24T16:42:25.513Z,5.2
2019-01-24T16:45:55.540Z,5.45
2019-01-24T16:49:25.620Z,5.85
2019-01-24T16:52:55.691Z,5.64
2019-01-24T16:56:25.872Z,7.2
2019-01-24T17:00:09.972Z,7.94
2019-01-24T17:03:40.081Z,6.68
2019-01-24T17:07:10.152Z,6.47
2019-01-24T17:10:41.173Z,6.54
2019-01-24T17:14:11.267Z,5.69
2019-01-24T17:17:41.369Z,5.93
2019-01-24T17:21:11.324Z,6.41
2019-01-24T17:24:41.573Z,6.67
2019-01-24T17:28:11.561Z,6.75
2019-01-24T17:31:41.701Z,6.36
2019-01-24T17:35:11.912Z,5.79
2019-01-24T17:38:42.163Z,9.04
2019-01-24T17:42:12.249Z,4.46
2019-01-24T17:45:42.285Z,5.88
2019-01-24T17:49:12.345Z,6.89
2019-01-24T17:52:42.555Z,7.33
2019-01-24T17:56:12.624Z,6.18
2019-01-24T17:59:42.744Z,6.41
2019-01-24T18:00:19.585Z,8.01
2019-01-24T18:03:49.613Z,6.86
2019-01-24T18:07:19.753Z,5.75
2019-01-24T18:10:50.782Z,5.91
2019-01-24T18:14:20.802Z,5.99
2019-01-24T18:17:51.254Z,6.05
2019-01-24T18:21:21.330Z,5.5
2019-01-24T18:24:51.411Z,6.11
2019-01-24T18:28:21.413Z,7.3
2019-01-24T18:31:51.460Z,6.78
2019-01-24T18:35:22.106Z,6.14
2019-01-24T18:38:52.178Z,6.38
2019-01-24T18:42:22.290Z,5.72
2019-01-24T18:45:54.576Z,8.08
2019-01-24T18:49:24.664Z,5.24
2019-01-24T18:52:54.740Z,6.44
2019-01-24T18:56:24.719Z,5.85
2019-01-24T18:59:54.756Z,8.27
2019-01-24T19:03:24.749Z,7.31
2019-01-24T19:06:54.756Z,8.34
2019-01-24T19:10:24.980Z,7.04
2019-01-24T19:13:56.028Z,7.01
2019-01-24T19:17:26.108Z,6.2
2019-01-24T19:20:56.140Z,6.15
2019-01-24T19:24:26.179Z,7.1
2019-01-24T19:27:56.297Z,7.32
2019-01-24T19:31:26.308Z,6.41
2019-01-24T19:34:56.433Z,7.56
2019-01-24T19:38:26.513Z,5.15
2019-01-24T19:41:56.562Z,5.24
2019-01-24T19:45:26.650Z,5.61
2019-01-24T19:48:56.659Z,5.69
2019-01-24T19:52:26.777Z,5.99
2019-01-24T19:55:56.866Z,5.34
2019-01-24T19:59:27.010Z,5.84
2019-01-24T20:00:19.927Z,5.43
2019-01-24T20:03:50.065Z,4.03
2019-01-24T20:07:20.148Z,4.26
2019-01-24T20:10:50.201Z,5.95
2019-01-24T20:14:21.337Z,3.44
2019-01-24T20:17:51.500Z,6.08
2019-01-24T20:21:21.576Z,5.4
2019-01-24T20:24:51.731Z,5.71
2019-01-24T20:28:21.868Z,5.22
2019-01-24T20:31:52.008Z,6
2019-01-24T20:35:25.451Z,7.35
2019-01-24T20:38:55.623Z,6.38
2019-01-24T20:42:25.939Z,5
2019-01-24T20:45:56.149Z,6.71
2019-01-24T20:49:26.202Z,6.9
2019-01-24T20:52:56.174Z,8.03
2019-01-24T20:56:26.497Z,7.7
2019-01-24T20:59:56.612Z,6.57
2019-01-24T21:03:26.754Z,5.19
2019-01-24T21:06:56.862Z,5.99
2019-01-24T21:10:27.023Z,7.06
2019-01-24T21:13:57.062Z,5.93
2019-01-24T21:17:28.086Z,6.88
2019-01-24T21:20:58.212Z,5.45
2019-01-24T21:24:28.431Z,6.41
2019-01-24T21:27:58.382Z,6.85
2019-01-24T21:31:28.484Z,4.8
2019-01-24T21:34:58.498Z,7.49
2019-01-24T21:38:28.602Z,6.69
2019-01-24T21:41:58.662Z,6.17
2019-01-24T21:45:30.452Z,5.97
2019-01-24T21:49:00.542Z,7.28
2019-01-24T21:52:30.758Z,5.6
2019-01-24T21:56:00.932Z,6.25
2019-01-24T21:59:31.017Z,7.85
2019-01-24T22:00:19.292Z,6.74
2019-01-24T22:03:49.322Z,6.7
2019-01-24T22:07:19.432Z,6.57
2019-01-24T22:10:49.502Z,7.4
2019-01-24T22:14:19.622Z,8.36
2019-01-24T22:17:50.603Z,6.32
2019-01-24T22:21:20.792Z,5.8
2019-01-24T22:24:50.833Z,7.28
2019-01-24T22:28:20.934Z,6.22
2019-01-24T22:31:50.924Z,8.53
2019-01-24T22:35:20.962Z,5.94
2019-01-24T22:38:51.162Z,7.52
2019-01-24T22:42:21.344Z,6.59
2019-01-24T22:45:51.349Z,7.95
2019-01-24T22:49:21.380Z,7.81
2019-01-24T22:52:51.380Z,6.9
2019-01-24T22:56:21.502Z,6.89
2019-01-24T22:59:51.612Z,7.03
2019-01-24T23:03:25.512Z,8.28
2019-01-24T23:06:55.559Z,7.56
2019-01-24T23:10:25.663Z,5.46
2019-01-24T23:13:55.752Z,8.88
2019-01-24T23:17:25.893Z,5.98
2019-01-24T23:20:57.014Z,7.81
2019-01-24T23:24:27.156Z,7.58
2019-01-24T23:27:57.142Z,6.94
2019-01-24T23:31:27.271Z,8.26
2019-01-24T23:34:57.205Z,8.35
2019-01-24T23:38:27.203Z,8.22
2019-01-24T23:41:57.463Z,7.6
2019-01-24T23:45:27.643Z,6.49
2019-01-24T23:48:57.783Z,7.25
2019-01-24T23:52:27.914Z,8.17
2019-01-24T23:55:57.969Z,8.18
2019-01-24T23:59:29.701Z,8.79
